createdAt,value
2017-07-23T00:00:53.471Z,11.23
2017-07-23T00:03:21.137Z,12.23
2017-07-23T00:05:48.814Z,15.70
2017-07-23T00:08:16.547Z,15.07
2017-07-23T00:10:44.278Z,15.10
2017-07-23T00:13:11.932Z,13.87
2017-07-23T00:15:39.555Z,9.80
2017-07-23T00:18:07.200Z,10.63
2017-07-23T00:20:34.886Z,15.73
2017-07-23T00:23:02.521Z,13.40
2017-07-23T00:25:30.179Z,13.87
2017-07-23T00:27:57.829Z,13.60
2017-07-23T00:30:25.447Z,13.60
2017-07-23T00:32:53.097Z,14.97
2017-07-23T00:35:20.762Z,8.40
2017-07-23T00:37:48.412Z,12.40
2017-07-23T00:40:16.132Z,12.17
2017-07-23T00:42:43.807Z,10.50
2017-07-23T00:45:11.460Z,10.50
2017-07-23T00:47:39.080Z,15.17
2017-07-23T00:50:06.741Z,6.90
2017-07-23T00:52:34.371Z,17.83
2017-07-23T00:55:02.021Z,10.60
2017-07-23T00:57:29.663Z,13.67
2017-07-23T00:59:57.323Z,13.63
2017-07-23T01:02:24.973Z,8.83
2017-07-23T01:04:52.613Z,8.47
2017-07-23T01:07:20.228Z,15.20
2017-07-23T01:09:47.871Z,12.73
2017-07-23T01:12:15.482Z,12.50
2017-07-23T01:14:43.116Z,12.00
2017-07-23T01:17:10.751Z,14.57
2017-07-23T01:19:38.391Z,11.80
2017-07-23T01:22:06.004Z,11.23
2017-07-23T01:24:33.762Z,10.27
2017-07-23T01:27:01.439Z,12.30
2017-07-23T01:29:29.091Z,11.30
2017-07-23T01:31:56.694Z,9.07
2017-07-23T01:34:24.362Z,12.73
2017-07-23T01:36:51.985Z,12.20
2017-07-23T01:39:19.635Z,7.80
2017-07-23T01:41:47.263Z,6.80
2017-07-23T01:44:14.899Z,11.13
2017-07-23T01:46:42.622Z,8.27
2017-07-23T01:49:10.274Z,8.43
2017-07-23T01:51:37.922Z,10.23
2017-07-23T01:54:05.606Z,6.83
2017-07-23T01:56:33.224Z,8.53
2017-07-23T01:59:00.907Z,10.40
2017-07-23T02:01:28.697Z,7.00
2017-07-23T02:03:56.327Z,6.17
2017-07-23T02:06:23.985Z,6.83
2017-07-23T02:08:51.649Z,7.93
2017-07-23T02:11:19.306Z,7.67
2017-07-23T02:13:47.317Z,6.30
2017-07-23T02:16:14.943Z,6.33
2017-07-23T02:18:42.572Z,11.50
2017-07-23T02:21:10.230Z,7.27
2017-07-23T02:23:37.868Z,7.40
2017-07-23T02:26:05.517Z,7.63
2017-07-23T02:28:33.144Z,7.77
2017-07-23T02:31:00.792Z,7.37
2017-07-23T02:33:28.434Z,8.07
2017-07-23T02:35:56.142Z,7.40
2017-07-23T02:38:23.837Z,8.83
2017-07-23T02:40:51.605Z,7.77
2017-07-23T02:43:19.414Z,8.17
2017-07-23T02:45:47.148Z,11.83
2017-07-23T02:48:14.823Z,7.40
2017-07-23T02:50:42.540Z,10.43
2017-07-23T02:53:10.288Z,9.13
2017-07-23T02:55:39.017Z,8.90
2017-07-23T02:58:06.706Z,9.07
2017-07-23T03:00:34.386Z,7.17
2017-07-23T03:03:02.060Z,8.87
2017-07-23T03:05:29.762Z,6.93
2017-07-23T03:07:57.399Z,8.17
2017-07-23T03:10:25.067Z,6.27
2017-07-23T03:12:52.694Z,7.60
2017-07-23T03:15:20.354Z,8.73
2017-07-23T03:17:47.999Z,7.17
2017-07-23T03:20:15.669Z,7.73
2017-07-23T03:22:43.297Z,6.57
2017-07-23T03:25:10.982Z,6.47
2017-07-23T03:27:38.606Z,8.30
2017-07-23T03:30:06.293Z,6.23
2017-07-23T03:32:33.965Z,9.33
2017-07-23T03:35:01.637Z,10.00
2017-07-23T03:37:29.316Z,6.23
2017-07-23T03:39:57.007Z,7.93
2017-07-23T03:42:24.637Z,7.80
2017-07-23T03:44:52.579Z,7.10
2017-07-23T03:47:20.225Z,8.60
2017-07-23T03:49:47.920Z,6.87
2017-07-23T03:52:15.578Z,8.60
2017-07-23T03:54:43.230Z,5.83
2017-07-23T03:57:10.885Z,9.37
2017-07-23T03:59:38.507Z,5.97
2017-07-23T04:02:06.161Z,7.87
2017-07-23T04:04:33.813Z,8.60
2017-07-23T04:07:01.508Z,12.07
2017-07-23T04:09:29.182Z,6.17
2017-07-23T04:11:56.856Z,6.77
2017-07-23T04:14:24.507Z,7.50
2017-07-23T04:16:52.264Z,9.20
2017-07-23T04:19:19.888Z,5.97
2017-07-23T04:21:47.532Z,6.97
2017-07-23T04:24:15.217Z,9.53
2017-07-23T04:26:42.867Z,6.23
2017-07-23T04:29:10.496Z,8.47
2017-07-23T04:31:38.185Z,6.57
2017-07-23T04:34:05.848Z,5.70
2017-07-23T04:36:33.535Z,8.60
2017-07-23T04:39:01.163Z,7.10
2017-07-23T04:41:28.826Z,6.57
2017-07-23T04:43:56.465Z,5.53
2017-07-23T04:46:24.123Z,8.00
2017-07-23T04:48:51.745Z,7.97
2017-07-23T04:51:19.469Z,5.77
2017-07-23T04:53:47.089Z,7.43
2017-07-23T04:56:14.727Z,6.90
2017-07-23T04:58:42.531Z,6.67
2017-07-23T05:01:10.182Z,6.53
2017-07-23T05:03:37.807Z,8.37
2017-07-23T05:06:05.447Z,7.67
2017-07-23T05:08:33.068Z,5.20
2017-07-23T05:11:00.717Z,5.83
2017-07-23T05:13:28.345Z,7.17
2017-07-23T05:15:55.954Z,9.63
2017-07-23T05:18:23.626Z,6.40
2017-07-23T05:20:51.270Z,8.30
2017-07-23T05:23:18.919Z,8.00
2017-07-23T05:25:46.539Z,7.60
2017-07-23T05:28:14.216Z,8.13
2017-07-23T05:30:41.814Z,7.60
2017-07-23T05:33:09.454Z,6.70
2017-07-23T05:35:37.074Z,8.37
2017-07-23T05:38:04.808Z,7.57
2017-07-23T05:40:32.472Z,9.03
2017-07-23T05:43:00.127Z,6.97
2017-07-23T05:45:27.739Z,6.80
2017-07-23T05:47:55.373Z,6.60
2017-07-23T05:50:22.971Z,8.13
2017-07-23T05:52:50.913Z,6.40
2017-07-23T05:55:18.662Z,6.57
2017-07-23T05:57:46.308Z,7.43
2017-07-23T06:00:13.952Z,10.60
2017-07-23T06:02:41.657Z,9.83
2017-07-23T06:05:09.299Z,8.97
2017-07-23T06:07:37.004Z,9.33
2017-07-23T06:10:04.622Z,10.83
2017-07-23T06:12:32.254Z,9.60
2017-07-23T06:14:59.879Z,7.13
2017-07-23T06:17:27.912Z,10.90
2017-07-23T06:19:55.598Z,8.00
2017-07-23T06:22:23.222Z,15.73
2017-07-23T06:24:50.869Z,8.27
2017-07-23T06:27:18.506Z,9.57
2017-07-23T06:29:46.123Z,7.27
2017-07-23T06:32:13.757Z,6.33
2017-07-23T06:34:41.419Z,6.80
2017-07-23T06:37:09.046Z,5.90
2017-07-23T06:39:37.061Z,6.97
2017-07-23T06:42:04.714Z,5.33
2017-07-23T06:44:32.329Z,6.00
2017-07-23T06:46:59.983Z,6.10
2017-07-23T06:49:27.603Z,6.50
2017-07-23T06:51:55.521Z,9.17
2017-07-23T06:54:23.139Z,9.43
2017-07-23T06:56:50.782Z,6.63
2017-07-23T06:59:18.522Z,6.50
2017-07-23T07:01:46.190Z,7.33
2017-07-23T07:04:13.837Z,7.27
2017-07-23T07:06:41.463Z,8.90
2017-07-23T07:09:09.088Z,6.37
2017-07-23T07:11:36.813Z,7.33
2017-07-23T07:14:04.516Z,6.30
2017-07-23T07:16:32.230Z,10.10
2017-07-23T07:19:00.283Z,8.07
2017-07-23T07:21:27.899Z,7.63
2017-07-23T07:23:56.486Z,8.50
2017-07-23T07:26:24.175Z,9.63
2017-07-23T07:28:51.806Z,7.03
2017-07-23T07:31:19.447Z,8.60
2017-07-23T07:33:47.086Z,5.97
2017-07-23T07:36:15.267Z,5.70
2017-07-23T07:38:42.878Z,5.47
2017-07-23T07:41:10.560Z,8.17
2017-07-23T07:43:38.203Z,5.13
2017-07-23T07:46:05.826Z,5.47
2017-07-23T07:48:33.751Z,4.73
2017-07-23T07:51:01.505Z,5.90
2017-07-23T07:53:29.151Z,5.60
2017-07-23T07:55:56.807Z,3.57
2017-07-23T07:58:24.436Z,4.10
2017-07-23T08:00:52.107Z,6.17
2017-07-23T08:03:19.710Z,10.30
2017-07-23T08:05:47.431Z,6.77
2017-07-23T08:08:15.032Z,5.00
2017-07-23T08:10:42.950Z,4.80
2017-07-23T08:13:10.592Z,6.63
2017-07-23T08:15:38.239Z,4.30
2017-07-23T08:18:05.923Z,4.73
2017-07-23T08:20:33.577Z,5.33
2017-07-23T08:23:01.251Z,5.37
2017-07-23T08:25:28.921Z,4.33
2017-07-23T08:27:56.913Z,8.30
2017-07-23T08:30:24.636Z,5.67
2017-07-23T08:32:52.254Z,4.53
2017-07-23T08:35:19.933Z,5.33
2017-07-23T08:37:47.563Z,6.13
2017-07-23T08:40:15.227Z,4.73
2017-07-23T08:42:42.850Z,4.10
2017-07-23T08:45:10.520Z,4.47
2017-07-23T08:47:38.334Z,5.33
2017-07-23T08:50:06.016Z,5.03
2017-07-23T08:52:33.692Z,5.40
2017-07-23T08:55:01.380Z,9.00
2017-07-23T08:57:29.016Z,3.97
2017-07-23T08:59:56.675Z,6.27
2017-07-23T09:02:24.332Z,5.30
2017-07-23T09:04:51.963Z,8.77
2017-07-23T09:07:19.603Z,5.80
2017-07-23T09:09:47.319Z,6.07
2017-07-23T09:12:15.306Z,5.70
2017-07-23T09:14:42.936Z,4.23
2017-07-23T09:17:10.598Z,4.00
2017-07-23T09:19:38.229Z,4.37
2017-07-23T09:22:05.859Z,9.10
2017-07-23T09:24:33.493Z,6.33
2017-07-23T09:27:01.136Z,24.70
2017-07-23T09:29:29.077Z,9.43
2017-07-23T09:31:56.698Z,4.73
2017-07-23T09:34:24.352Z,4.40
2017-07-23T09:36:52.026Z,4.70
2017-07-23T09:39:19.721Z,9.33
2017-07-23T09:41:47.412Z,4.33
2017-07-23T09:44:15.046Z,5.10
2017-07-23T09:46:42.689Z,5.43
2017-07-23T09:49:10.368Z,3.87
2017-07-23T09:51:39.245Z,4.67
2017-07-23T09:54:06.882Z,4.83
2017-07-23T09:56:34.541Z,7.33
2017-07-23T09:59:02.194Z,4.40
2017-07-23T10:01:29.834Z,7.50
2017-07-23T10:03:57.452Z,8.93
2017-07-23T10:06:25.159Z,4.80
2017-07-23T10:08:53.035Z,6.80
2017-07-23T10:11:21.172Z,5.23
2017-07-23T10:13:48.817Z,8.37
2017-07-23T10:16:16.634Z,9.37
2017-07-23T10:18:44.792Z,5.03
2017-07-23T10:21:12.448Z,3.90
2017-07-23T10:23:40.071Z,5.53
2017-07-23T10:26:07.735Z,5.50
2017-07-23T10:28:35.393Z,5.40
2017-07-23T10:31:03.039Z,5.30
2017-07-23T10:33:30.664Z,3.97
2017-07-23T10:35:58.333Z,3.70
2017-07-23T10:38:26.493Z,4.17
2017-07-23T10:40:54.125Z,6.30
2017-07-23T10:43:21.778Z,3.30
2017-07-23T10:45:49.430Z,3.87
2017-07-23T10:48:17.122Z,4.50
2017-07-23T10:50:44.794Z,8.07
2017-07-23T10:53:12.435Z,5.43
2017-07-23T10:55:40.075Z,3.90
2017-07-23T10:58:10.035Z,6.60
2017-07-23T11:00:37.787Z,4.30
2017-07-23T11:03:05.462Z,4.33
2017-07-23T11:05:33.119Z,3.73
2017-07-23T11:08:01.278Z,4.60
2017-07-23T11:10:28.938Z,3.20
2017-07-23T11:12:56.586Z,4.07
2017-07-23T11:15:24.248Z,4.13
2017-07-23T11:17:52.040Z,7.13
2017-07-23T11:20:20.932Z,5.03
2017-07-23T11:22:50.001Z,5.23
2017-07-23T11:25:17.657Z,3.20
2017-07-23T11:27:45.311Z,3.47
2017-07-23T11:30:12.948Z,3.97
2017-07-23T11:32:40.630Z,5.00
2017-07-23T11:35:08.343Z,4.53
2017-07-23T11:37:36.010Z,5.30
2017-07-23T11:40:03.745Z,5.83
2017-07-23T11:42:31.394Z,4.77
2017-07-23T11:44:59.031Z,6.20
2017-07-23T11:47:26.734Z,3.60
2017-07-23T11:49:54.382Z,3.63
2017-07-23T11:52:22.035Z,3.80
2017-07-23T11:54:49.788Z,3.83
2017-07-23T11:57:18.744Z,3.80
2017-07-23T11:59:46.827Z,3.77
2017-07-23T12:02:14.512Z,4.57
2017-07-23T12:04:42.144Z,3.47
2017-07-23T12:07:09.849Z,5.10
2017-07-23T12:09:37.704Z,2.93
2017-07-23T12:12:05.404Z,3.70
2017-07-23T12:14:33.398Z,4.23
2017-07-23T12:17:01.172Z,5.13
2017-07-23T12:19:28.783Z,4.10
2017-07-23T12:21:56.585Z,4.13
2017-07-23T12:24:24.242Z,3.83
2017-07-23T12:26:52.248Z,5.83
2017-07-23T12:29:19.980Z,4.17
2017-07-23T12:31:47.682Z,3.80
2017-07-23T12:34:15.546Z,3.60
2017-07-23T12:36:43.325Z,4.53
2017-07-23T12:39:10.989Z,3.97
2017-07-23T12:41:38.678Z,3.90
2017-07-23T12:44:06.330Z,3.90
2017-07-23T12:46:33.995Z,6.87
2017-07-23T12:49:01.638Z,3.93
2017-07-23T12:51:29.338Z,4.40
2017-07-23T12:53:57.062Z,3.70
2017-07-23T12:56:24.720Z,4.07
2017-07-23T12:58:53.822Z,4.33
2017-07-23T13:01:21.467Z,3.40
2017-07-23T13:03:49.204Z,5.83
2017-07-23T13:06:16.859Z,5.97
2017-07-23T13:08:44.819Z,3.53
2017-07-23T13:13:46.578Z,4.43
2017-07-23T13:16:14.208Z,4.03
2017-07-23T13:18:42.257Z,3.60
2017-07-23T13:21:09.926Z,4.63
2017-07-23T13:23:37.535Z,4.07
2017-07-23T13:26:05.165Z,4.90
2017-07-23T13:28:32.786Z,3.37
2017-07-23T13:31:00.516Z,3.73
2017-07-23T13:33:28.118Z,3.97
2017-07-23T13:35:55.763Z,4.83
2017-07-23T13:38:23.420Z,6.70
2017-07-23T13:40:51.534Z,3.60
2017-07-23T13:43:19.221Z,3.30
2017-07-23T13:45:47.180Z,5.47
2017-07-23T13:48:14.820Z,3.83
2017-07-23T13:50:42.486Z,4.33
2017-07-23T13:53:10.227Z,3.53
2017-07-23T13:55:37.888Z,4.27
2017-07-23T13:58:05.541Z,4.33
2017-07-23T14:00:33.181Z,4.93
2017-07-23T14:03:00.985Z,4.10
2017-07-23T14:05:28.645Z,3.60
2017-07-23T14:07:56.271Z,4.33
2017-07-23T14:10:23.941Z,4.70
2017-07-23T14:12:51.871Z,5.20
2017-07-23T14:15:19.534Z,3.70
2017-07-23T14:17:47.194Z,3.70
2017-07-23T14:20:15.488Z,3.40
2017-07-23T14:22:43.108Z,4.07
2017-07-23T14:25:10.763Z,3.70
2017-07-23T14:27:38.399Z,3.40
2017-07-23T14:30:06.034Z,4.57
2017-07-23T14:32:33.660Z,3.97
2017-07-23T14:35:01.699Z,3.50
2017-07-23T14:37:29.294Z,5.07
2017-07-23T14:39:56.947Z,5.43
2017-07-23T14:42:24.611Z,6.07
2017-07-23T14:44:52.260Z,3.43
2017-07-23T14:47:19.892Z,5.07
2017-07-23T14:49:47.568Z,4.53
2017-07-23T14:52:15.245Z,4.33
2017-07-23T14:54:42.864Z,6.63
2017-07-23T14:57:10.773Z,5.53
2017-07-23T14:59:38.392Z,8.53
2017-07-23T15:02:06.043Z,5.67
2017-07-23T15:04:33.672Z,6.63
2017-07-23T15:07:01.438Z,6.07
2017-07-23T15:09:29.361Z,8.23
2017-07-23T15:11:57.123Z,4.40
2017-07-23T15:14:24.754Z,3.90
2017-07-23T15:16:52.428Z,5.30
2017-07-23T15:19:20.076Z,4.03
2017-07-23T15:21:48.047Z,7.20
2017-07-23T15:24:15.689Z,5.07
2017-07-23T15:26:43.313Z,6.57
2017-07-23T15:29:11.351Z,5.47
2017-07-23T15:31:39.292Z,4.57
2017-07-23T15:34:06.948Z,5.60
2017-07-23T15:36:34.777Z,4.30
2017-07-23T15:39:02.437Z,6.30
2017-07-23T15:41:30.063Z,4.27
2017-07-23T15:43:58.298Z,6.03
2017-07-23T15:46:25.943Z,4.90
2017-07-23T15:48:53.551Z,5.73
2017-07-23T15:51:21.175Z,4.10
2017-07-23T15:53:48.803Z,4.70
2017-07-23T15:56:16.464Z,4.60
2017-07-23T15:58:44.099Z,5.30
2017-07-23T16:01:11.768Z,4.67
2017-07-23T16:03:39.410Z,6.17
2017-07-23T16:06:07.101Z,4.37
2017-07-23T16:08:34.735Z,4.33
2017-07-23T16:11:02.418Z,5.27
2017-07-23T16:13:30.053Z,4.03
2017-07-23T16:15:57.770Z,6.40
2017-07-23T16:18:25.414Z,10.03
2017-07-23T16:20:53.410Z,5.50
2017-07-23T16:23:21.057Z,5.27
2017-07-23T16:25:48.708Z,4.57
2017-07-23T16:28:16.333Z,4.17
2017-07-23T16:30:44.006Z,6.50
2017-07-23T16:33:11.616Z,9.20
2017-07-23T16:35:39.290Z,4.53
2017-07-23T16:38:06.997Z,7.00
2017-07-23T16:40:35.591Z,3.97
2017-07-23T16:43:03.237Z,4.47
2017-07-23T16:45:31.119Z,4.57
2017-07-23T16:47:58.788Z,4.90
2017-07-23T16:50:26.557Z,4.73
2017-07-23T16:52:54.420Z,6.03
2017-07-23T16:55:22.044Z,4.10
2017-07-23T16:57:49.699Z,5.20
2017-07-23T17:00:17.477Z,5.93
2017-07-23T17:02:45.149Z,4.63
2017-07-23T17:05:13.423Z,5.47
2017-07-23T17:07:41.064Z,4.70
2017-07-23T17:10:08.672Z,4.37
2017-07-23T17:12:37.241Z,5.23
2017-07-23T17:15:04.842Z,5.83
2017-07-23T17:17:32.983Z,5.70
2017-07-23T17:20:00.737Z,6.77
2017-07-23T17:22:28.411Z,4.73
2017-07-23T17:24:56.067Z,5.93
2017-07-23T17:27:23.740Z,4.97
2017-07-23T17:29:51.370Z,3.67
2017-07-23T17:32:19.039Z,4.67
2017-07-23T17:34:46.832Z,5.10
2017-07-23T17:37:14.491Z,6.50
2017-07-23T17:39:42.236Z,10.07
2017-07-23T17:42:09.899Z,3.77
2017-07-23T17:44:37.562Z,4.87
2017-07-23T17:47:05.254Z,6.37
2017-07-23T17:49:32.913Z,4.77
2017-07-23T17:52:00.574Z,5.50
2017-07-23T17:54:28.209Z,3.60
2017-07-23T17:56:55.877Z,4.97
2017-07-23T17:59:23.589Z,3.60
2017-07-23T18:01:51.932Z,4.90
2017-07-23T18:04:19.558Z,4.50
2017-07-23T18:06:47.240Z,6.83
2017-07-23T18:09:14.860Z,5.43
2017-07-23T18:11:42.535Z,4.10
2017-07-23T18:14:10.181Z,3.57
2017-07-23T18:16:37.805Z,5.13
2017-07-23T18:19:05.572Z,5.30
2017-07-23T18:21:33.220Z,5.13
2017-07-23T18:24:00.973Z,7.43
2017-07-23T18:26:28.604Z,9.37
2017-07-23T18:28:56.234Z,4.50
2017-07-23T18:31:23.852Z,5.23
2017-07-23T18:33:51.546Z,7.27
2017-07-23T18:36:19.181Z,4.67
2017-07-23T18:38:47.122Z,3.57
2017-07-23T18:41:14.828Z,5.23
2017-07-23T18:43:42.564Z,5.03
2017-07-23T18:46:10.268Z,4.10
2017-07-23T18:48:37.928Z,9.13
2017-07-23T18:51:05.571Z,5.50
2017-07-23T18:53:33.192Z,5.00
2017-07-23T18:56:01.379Z,11.20
2017-07-23T18:58:29.007Z,5.73
2017-07-23T19:00:56.614Z,6.53
2017-07-23T19:03:24.268Z,6.37
2017-07-23T19:05:52.187Z,6.37
2017-07-23T19:08:19.827Z,4.50
2017-07-23T19:10:47.476Z,4.90
2017-07-23T19:13:15.515Z,4.83
2017-07-23T19:15:43.149Z,6.47
2017-07-23T19:18:10.811Z,5.90
2017-07-23T19:20:38.462Z,5.67
2017-07-23T19:23:06.100Z,6.37
2017-07-23T19:25:33.753Z,6.80
2017-07-23T19:28:01.420Z,5.53
2017-07-23T19:30:29.084Z,4.80
2017-07-23T19:32:56.705Z,5.50
2017-07-23T19:35:24.470Z,9.87
2017-07-23T19:37:52.104Z,10.50
2017-07-23T19:40:20.137Z,5.73
2017-07-23T19:42:47.816Z,8.70
2017-07-23T19:45:15.447Z,7.70
2017-07-23T19:47:43.086Z,6.43
2017-07-23T19:50:10.712Z,11.10
2017-07-23T19:52:38.353Z,8.20
2017-07-23T19:55:06.169Z,6.07
2017-07-23T19:57:34.112Z,6.53
2017-07-23T20:00:01.746Z,5.77
2017-07-23T20:02:29.436Z,7.20
2017-07-23T20:04:57.122Z,9.53
2017-07-23T20:07:24.720Z,9.13
2017-07-23T20:09:52.463Z,6.27
2017-07-23T20:12:20.248Z,7.33
2017-07-23T20:14:48.159Z,11.83
2017-07-23T20:17:15.850Z,6.67
2017-07-23T20:19:43.529Z,7.23
2017-07-23T20:22:11.212Z,7.00
2017-07-23T20:24:39.011Z,8.03
2017-07-23T20:27:06.675Z,8.10
2017-07-23T20:29:34.510Z,9.20
2017-07-23T20:32:02.170Z,8.17
2017-07-23T20:34:29.812Z,7.07
2017-07-23T20:36:57.439Z,9.70
2017-07-23T20:39:25.411Z,10.93
2017-07-23T20:41:53.029Z,7.93
2017-07-23T20:44:20.679Z,10.60
2017-07-23T20:46:48.329Z,7.27
2017-07-23T20:49:15.998Z,7.90
2017-07-23T20:51:45.006Z,7.50
2017-07-23T20:54:12.681Z,7.60
2017-07-23T20:56:40.621Z,8.57
2017-07-23T20:59:08.238Z,10.10
2017-07-23T21:01:35.865Z,8.30
2017-07-23T21:04:03.560Z,6.13
2017-07-23T21:06:31.227Z,10.07
2017-07-23T21:08:58.869Z,9.50
2017-07-23T21:11:26.517Z,10.20
2017-07-23T21:13:54.257Z,8.70
2017-07-23T21:16:21.947Z,7.20
2017-07-23T21:18:49.596Z,7.57
2017-07-23T21:21:17.326Z,9.50
2017-07-23T21:23:44.955Z,8.40
2017-07-23T21:26:12.862Z,8.13
2017-07-23T21:28:40.621Z,7.10
2017-07-23T21:31:08.217Z,9.43
2017-07-23T21:33:35.898Z,8.83
2017-07-23T21:36:03.585Z,11.90
2017-07-23T21:38:31.246Z,10.70
2017-07-23T21:40:58.901Z,8.97
2017-07-23T21:43:26.533Z,8.97
2017-07-23T21:45:54.199Z,10.20
2017-07-23T21:48:22.097Z,9.47
2017-07-23T21:50:49.894Z,9.00
2017-07-23T21:53:17.488Z,8.83
2017-07-23T21:55:45.190Z,14.03
2017-07-23T21:58:12.860Z,12.60
2017-07-23T22:00:40.854Z,12.00
2017-07-23T22:03:08.476Z,9.57
2017-07-23T22:05:36.075Z,9.70
2017-07-23T22:08:03.742Z,10.43
2017-07-23T22:10:31.367Z,7.77
2017-07-23T22:12:59.003Z,14.40
2017-07-23T22:15:26.627Z,8.60
2017-07-23T22:17:54.636Z,9.50
2017-07-23T22:20:22.256Z,13.17
2017-07-23T22:22:50.019Z,14.00
2017-07-23T22:25:17.695Z,9.57
2017-07-23T22:27:45.332Z,12.50
2017-07-23T22:30:12.969Z,9.53
2017-07-23T22:32:40.609Z,9.37
2017-07-23T22:35:08.296Z,13.30
2017-07-23T22:37:36.021Z,10.90
2017-07-23T22:40:03.650Z,9.73
2017-07-23T22:42:31.446Z,14.17
2017-07-23T22:44:59.079Z,11.87
2017-07-23T22:47:27.005Z,10.70
2017-07-23T22:49:54.649Z,9.93
2017-07-23T22:52:22.295Z,9.90
2017-07-23T22:54:50.048Z,20.10
2017-07-23T22:57:17.676Z,11.53
2017-07-23T22:59:45.318Z,11.50
2017-07-23T23:02:12.991Z,11.20
2017-07-23T23:04:40.901Z,11.40
2017-07-23T23:07:08.532Z,14.30
2017-07-23T23:09:36.338Z,10.60
2017-07-23T23:12:04.061Z,10.83
2017-07-23T23:14:31.729Z,14.30
2017-07-23T23:16:59.392Z,10.87
2017-07-23T23:19:27.047Z,15.53
2017-07-23T23:21:54.665Z,11.50
2017-07-23T23:24:22.460Z,12.47
2017-07-23T23:26:50.303Z,11.60
2017-07-23T23:29:17.958Z,12.83
2017-07-23T23:31:45.589Z,14.43
2017-07-23T23:34:13.221Z,13.67
2017-07-23T23:36:40.885Z,14.27
2017-07-23T23:39:08.882Z,13.57
2017-07-23T23:41:36.517Z,10.70
2017-07-23T23:44:04.160Z,11.57
2017-07-23T23:46:31.898Z,12.07
2017-07-23T23:48:59.667Z,15.23
2017-07-23T23:51:27.327Z,12.63
2017-07-23T23:53:54.951Z,11.63
2017-07-23T23:56:22.598Z,10.80
2017-07-23T23:58:50.225Z,16.80
